createdAt,value
2018-04-18T00:02:22.455Z,56.58
2018-04-18T00:04:50.947Z,56.67
2018-04-18T00:07:19.315Z,56.51
2018-04-18T00:09:48.392Z,56.58
2018-04-18T00:12:16.976Z,56.65
2018-04-18T00:14:45.350Z,56.84
2018-04-18T00:17:13.775Z,56.64
2018-04-18T00:19:42.519Z,56.36
2018-04-18T00:22:10.999Z,56.14
2018-04-18T00:24:39.393Z,56.05
2018-04-18T00:27:08.600Z,56.06
2018-04-18T00:29:36.957Z,56.04
2018-04-18T00:32:05.335Z,56.30
2018-04-18T00:37:07.417Z,56.15
2018-04-18T00:39:35.919Z,56.00
2018-04-18T00:42:04.458Z,56.05
2018-04-18T00:44:32.989Z,56.02
2018-04-18T00:47:01.804Z,56.01
2018-04-18T00:49:30.264Z,56.24
2018-04-18T00:51:58.712Z,56.34
2018-04-18T00:54:27.276Z,56.39
2018-04-18T00:56:55.796Z,56.36
2018-04-18T00:59:24.206Z,56.46
2018-04-18T01:01:53.685Z,56.52
2018-04-18T01:04:22.088Z,56.46
2018-04-18T01:06:50.446Z,56.43
2018-04-18T01:09:18.840Z,56.40
2018-04-18T01:11:47.233Z,56.45
2018-04-18T01:14:15.727Z,56.37
2018-04-18T01:16:45.292Z,56.48
2018-04-18T01:19:13.921Z,56.38
2018-04-18T01:21:42.331Z,56.54
2018-04-18T01:24:10.753Z,56.37
2018-04-18T01:26:39.139Z,56.46
2018-04-18T01:29:07.527Z,56.51
2018-04-18T01:31:36.053Z,56.68
2018-04-18T01:34:05.416Z,56.84
2018-04-18T01:36:33.958Z,56.92
2018-04-18T01:39:03.148Z,57.08
2018-04-18T01:41:31.552Z,57.11
2018-04-18T01:44:00.102Z,57.35
2018-04-18T01:46:28.528Z,57.56
2018-04-18T01:49:08.715Z,57.68
2018-04-18T01:51:37.288Z,57.75
2018-04-18T01:54:05.652Z,57.50
2018-04-18T01:56:34.257Z,57.76
2018-04-18T01:59:02.674Z,57.66
2018-04-18T02:01:31.019Z,57.84
2018-04-18T02:03:59.478Z,58.09
2018-04-18T02:06:28.345Z,58.17
2018-04-18T02:08:56.808Z,58.24
2018-04-18T02:11:25.226Z,58.29
2018-04-18T02:13:54.935Z,58.22
2018-04-18T02:16:23.390Z,58.27
2018-04-18T02:18:51.770Z,58.22
2018-04-18T02:21:20.660Z,58.13
2018-04-18T02:23:49.019Z,58.43
2018-04-18T02:26:17.414Z,58.29
2018-04-18T02:28:45.811Z,58.33
2018-04-18T02:31:14.396Z,58.44
2018-04-18T02:33:42.746Z,58.44
2018-04-18T02:36:11.132Z,58.44
2018-04-18T02:38:39.676Z,58.60
2018-04-18T02:41:08.054Z,58.74
2018-04-18T02:43:36.604Z,58.79
2018-04-18T02:46:04.981Z,59.14
2018-04-18T02:48:33.399Z,58.99
2018-04-18T02:51:02.535Z,59.00
2018-04-18T02:53:31.117Z,59.02
2018-04-18T02:56:00.272Z,59.16
2018-04-18T02:58:28.783Z,59.12
2018-04-18T03:00:57.178Z,59.05
2018-04-18T03:03:26.959Z,59.18
2018-04-18T03:05:57.724Z,59.27
2018-04-18T03:08:26.167Z,59.31
2018-04-18T03:10:54.769Z,59.47
2018-04-18T03:13:23.968Z,59.31
2018-04-18T03:15:52.383Z,59.78
2018-04-18T03:18:20.800Z,59.58
2018-04-18T03:20:49.372Z,60.21
2018-04-18T03:23:17.767Z,60.87
2018-04-18T03:25:46.149Z,60.43
2018-04-18T03:28:14.638Z,60.31
2018-04-18T03:30:43.121Z,60.11
2018-04-18T03:33:11.520Z,60.07
2018-04-18T03:35:39.928Z,60.35
2018-04-18T03:38:08.302Z,60.28
2018-04-18T03:40:36.830Z,60.28
2018-04-18T03:43:05.523Z,60.32
2018-04-18T03:45:33.968Z,60.46
2018-04-18T03:48:02.372Z,60.83
2018-04-18T03:50:33.629Z,60.87
2018-04-18T03:53:02.035Z,60.95
2018-04-18T03:55:30.604Z,60.88
2018-04-18T03:57:59.126Z,60.96
2018-04-18T04:00:27.553Z,61.14
2018-04-18T04:02:56.165Z,61.17
2018-04-18T04:05:27.262Z,61.27
2018-04-18T04:07:56.386Z,61.44
2018-04-18T04:10:24.832Z,61.83
2018-04-18T04:12:53.378Z,61.87
2018-04-18T04:15:21.785Z,61.83
2018-04-18T04:18:02.018Z,61.80
2018-04-18T04:20:42.192Z,61.92
2018-04-18T04:23:22.486Z,62.46
2018-04-18T04:25:50.854Z,62.69
2018-04-18T04:28:19.255Z,62.67
2018-04-18T04:30:48.669Z,62.52
2018-04-18T04:33:17.067Z,62.19
2018-04-18T04:35:45.579Z,62.31
2018-04-18T04:38:13.993Z,62.09
2018-04-18T04:40:42.437Z,62.20
2018-04-18T04:43:10.958Z,62.18
2018-04-18T04:45:40.047Z,62.08
2018-04-18T04:48:08.476Z,62.14
2018-04-18T04:50:37.036Z,61.92
2018-04-18T04:53:05.562Z,61.86
2018-04-18T04:55:34.135Z,62.01
2018-04-18T04:58:02.702Z,62.43
2018-04-18T05:00:31.286Z,62.36
2018-04-18T05:02:59.765Z,62.16
2018-04-18T05:05:28.615Z,62.22
2018-04-18T05:07:57.547Z,62.35
2018-04-18T05:10:26.075Z,62.20
2018-04-18T05:12:54.572Z,62.40
2018-04-18T05:15:23.096Z,62.28
2018-04-18T05:17:51.551Z,62.22
2018-04-18T05:20:19.951Z,62.45
2018-04-18T05:22:48.355Z,62.79
2018-04-18T05:25:16.811Z,62.49
2018-04-18T05:27:45.224Z,62.11
2018-04-18T05:30:13.743Z,61.88
2018-04-18T05:32:42.121Z,61.71
2018-04-18T05:35:10.564Z,61.51
2018-04-18T05:37:39.287Z,61.61
2018-04-18T05:40:07.849Z,61.51
2018-04-18T05:42:36.367Z,61.32
2018-04-18T05:45:05.271Z,61.18
2018-04-18T05:47:33.968Z,60.92
2018-04-18T05:50:02.616Z,60.74
2018-04-18T05:52:31.074Z,60.37
2018-04-18T05:54:59.985Z,60.24
2018-04-18T05:57:28.671Z,59.89
2018-04-18T05:59:58.306Z,59.66
2018-04-18T06:02:26.905Z,59.65
2018-04-18T06:04:55.590Z,59.75
2018-04-18T06:07:24.133Z,59.31
2018-04-18T06:09:52.541Z,59.08
2018-04-18T06:12:21.605Z,58.69
2018-04-18T06:14:50.016Z,58.66
2018-04-18T06:17:18.379Z,58.52
2018-04-18T06:19:46.862Z,57.95
2018-04-18T06:22:15.871Z,57.94
2018-04-18T06:24:44.309Z,57.47
2018-04-18T06:27:12.726Z,57.48
2018-04-18T06:29:42.322Z,57.17
2018-04-18T06:32:10.712Z,56.90
2018-04-18T06:34:39.365Z,56.96
2018-04-18T06:37:08.546Z,56.72
2018-04-18T06:39:41.715Z,56.36
2018-04-18T06:42:10.157Z,56.21
2018-04-18T06:44:38.550Z,56.07
2018-04-18T06:47:07.091Z,55.40
2018-04-18T06:49:35.572Z,55.26
2018-04-18T06:52:05.098Z,55.08
2018-04-18T06:54:33.524Z,55.01
2018-04-18T06:57:02.991Z,54.49
2018-04-18T06:59:31.392Z,54.37
2018-04-18T07:01:59.852Z,53.90
2018-04-18T07:04:28.832Z,53.66
2018-04-18T07:06:57.295Z,53.34
2018-04-18T07:09:25.806Z,53.15
2018-04-18T07:11:54.607Z,52.96
2018-04-18T07:14:23.744Z,52.70
2018-04-18T07:16:52.426Z,52.28
2018-04-18T07:19:22.006Z,52.28
2018-04-18T07:21:51.392Z,51.80
2018-04-18T07:24:19.768Z,51.89
2018-04-18T07:26:48.832Z,51.69
2018-04-18T07:29:17.187Z,51.01
2018-04-18T07:31:45.585Z,50.89
2018-04-18T07:34:13.984Z,50.47
2018-04-18T07:36:42.685Z,49.97
2018-04-18T07:39:11.190Z,49.68
2018-04-18T07:41:39.630Z,49.69
2018-04-18T07:44:08.024Z,48.46
2018-04-18T07:46:36.724Z,48.56
2018-04-18T07:49:06.759Z,48.35
2018-04-18T07:51:35.382Z,48.43
2018-04-18T07:54:04.647Z,47.90
2018-04-18T07:56:33.276Z,47.92
2018-04-18T07:59:01.856Z,47.64
2018-04-18T08:01:30.623Z,47.80
2018-04-18T08:03:59.965Z,48.02
2018-04-18T08:06:28.477Z,47.97
2018-04-18T08:08:56.953Z,47.94
2018-04-18T08:11:26.046Z,47.24
2018-04-18T08:13:54.596Z,47.29
2018-04-18T08:16:23.373Z,46.83
2018-04-18T08:18:51.861Z,46.52
2018-04-18T08:21:20.231Z,46.71
2018-04-18T08:23:48.659Z,46.90
2018-04-18T08:26:17.090Z,46.91
2018-04-18T08:28:45.672Z,46.86
2018-04-18T08:31:14.087Z,47.00
2018-04-18T08:33:42.503Z,47.30
2018-04-18T08:36:10.873Z,47.27
2018-04-18T08:38:39.289Z,47.20
2018-04-18T08:41:07.776Z,47.11
2018-04-18T08:43:36.255Z,46.83
2018-04-18T08:46:04.835Z,46.63
2018-04-18T08:48:33.323Z,46.34
2018-04-18T08:51:01.796Z,46.52
2018-04-18T08:53:30.289Z,46.11
2018-04-18T08:55:59.494Z,46.19
2018-04-18T08:58:27.961Z,45.87
2018-04-18T09:00:57.273Z,45.99
2018-04-18T09:03:26.368Z,45.63
2018-04-18T09:05:54.949Z,45.53
2018-04-18T09:08:23.388Z,45.12
2018-04-18T09:10:52.061Z,45.12
2018-04-18T09:13:20.506Z,45.01
2018-04-18T09:15:48.966Z,45.08
2018-04-18T09:18:17.349Z,43.87
2018-04-18T09:20:45.758Z,42.68
2018-04-18T09:23:14.200Z,42.37
2018-04-18T09:25:42.616Z,42.03
2018-04-18T09:28:11.371Z,41.30
2018-04-18T09:30:39.871Z,40.24
2018-04-18T09:33:08.439Z,38.00
2018-04-18T09:35:36.855Z,37.04
2018-04-18T09:38:05.536Z,37.09
2018-04-18T09:40:35.425Z,36.46
2018-04-18T09:43:04.053Z,35.48
2018-04-18T09:45:32.481Z,33.86
2018-04-18T09:48:00.900Z,32.67
2018-04-18T09:50:29.251Z,32.88
2018-04-18T09:52:57.657Z,33.75
2018-04-18T09:55:26.329Z,33.86
2018-04-18T09:57:54.694Z,32.34
2018-04-18T10:00:28.791Z,31.47
2018-04-18T10:03:03.052Z,31.62
2018-04-18T10:05:31.561Z,32.32
2018-04-18T10:08:00.265Z,32.69
2018-04-18T10:10:28.647Z,32.94
2018-04-18T10:12:57.049Z,32.88
2018-04-18T10:15:25.471Z,31.99
2018-04-18T10:17:53.849Z,30.81
2018-04-18T10:20:23.051Z,31.18
2018-04-18T10:22:51.778Z,29.71
2018-04-18T10:25:20.173Z,29.10
2018-04-18T10:27:48.561Z,28.57
2018-04-18T10:30:17.076Z,29.93
2018-04-18T10:32:45.543Z,29.04
2018-04-18T10:35:14.003Z,29.44
2018-04-18T10:37:42.583Z,29.78
2018-04-18T10:40:11.218Z,30.61
2018-04-18T10:42:39.807Z,31.03
2018-04-18T10:45:12.367Z,31.06
2018-04-18T10:47:45.521Z,33.25
2018-04-18T10:50:14.034Z,30.93
2018-04-18T10:52:42.659Z,30.66
2018-04-18T10:55:12.184Z,31.16
2018-04-18T10:57:40.910Z,31.48
2018-04-18T11:00:09.550Z,31.64
2018-04-18T11:02:38.990Z,31.61
2018-04-18T11:05:07.444Z,31.36
2018-04-18T11:07:35.972Z,31.08
2018-04-18T11:10:04.674Z,30.59
2018-04-18T11:12:33.153Z,31.19
2018-04-18T11:15:01.577Z,32.15
2018-04-18T11:17:31.235Z,32.63
2018-04-18T11:20:00.891Z,31.70
2018-04-18T11:22:29.313Z,31.37
2018-04-18T11:24:59.064Z,31.79
2018-04-18T11:27:28.489Z,31.43
2018-04-18T11:29:57.116Z,31.55
2018-04-18T11:32:25.523Z,31.55
2018-04-18T11:34:53.933Z,31.58
2018-04-18T11:37:22.346Z,31.66
2018-04-18T11:39:50.850Z,32.40
2018-04-18T11:42:19.247Z,32.79
2018-04-18T11:44:48.551Z,33.07
2018-04-18T11:47:16.952Z,32.98
2018-04-18T11:49:45.412Z,33.77
2018-04-18T11:52:13.791Z,34.17
2018-04-18T11:54:42.726Z,33.07
2018-04-18T11:57:11.480Z,32.30
2018-04-18T11:59:39.911Z,32.24
2018-04-18T12:02:08.400Z,31.68
2018-04-18T12:04:36.876Z,32.08
2018-04-18T12:07:05.594Z,32.23
2018-04-18T12:09:34.081Z,32.72
2018-04-18T12:12:03.586Z,32.26
2018-04-18T12:14:32.132Z,32.02
2018-04-18T12:17:00.573Z,31.97
2018-04-18T12:19:29.067Z,31.54
2018-04-18T12:21:57.625Z,31.61
2018-04-18T12:24:26.053Z,31.88
2018-04-18T12:26:54.506Z,32.51
2018-04-18T12:29:23.049Z,32.37
2018-04-18T12:31:52.858Z,33.08
2018-04-18T12:34:22.678Z,34.55
2018-04-18T12:36:51.976Z,35.84
2018-04-18T12:39:21.226Z,35.65
2018-04-18T12:41:49.650Z,35.38
2018-04-18T12:44:18.034Z,34.68
2018-04-18T12:46:46.432Z,33.95
2018-04-18T12:49:14.867Z,34.51
2018-04-18T12:51:43.276Z,33.09
2018-04-18T12:54:12.434Z,32.78
2018-04-18T12:56:41.061Z,32.17
2018-04-18T12:59:09.536Z,32.86
2018-04-18T13:01:38.329Z,33.17
2018-04-18T13:04:06.748Z,33.69
2018-04-18T13:06:35.119Z,34.93
2018-04-18T13:09:04.329Z,35.23
2018-04-18T13:11:33.889Z,34.21
2018-04-18T13:14:03.264Z,33.47
2018-04-18T13:16:32.461Z,33.79
2018-04-18T13:19:00.951Z,33.84
2018-04-18T13:21:29.774Z,33.90
2018-04-18T13:23:58.236Z,33.07
2018-04-18T13:26:26.614Z,32.66
2018-04-18T13:28:55.004Z,32.49
2018-04-18T13:31:23.836Z,33.26
2018-04-18T13:33:52.537Z,34.26
2018-04-18T13:36:21.059Z,35.17
2018-04-18T13:38:50.147Z,34.64
2018-04-18T13:41:18.639Z,34.60
2018-04-18T13:43:47.093Z,34.54
2018-04-18T13:46:15.558Z,34.96
2018-04-18T13:48:44.281Z,35.15
2018-04-18T13:51:12.925Z,35.34
2018-04-18T13:53:41.518Z,34.57
2018-04-18T13:56:09.926Z,34.21
2018-04-18T13:58:38.361Z,34.20
2018-04-18T14:01:06.914Z,33.60
2018-04-18T14:03:35.292Z,33.21
2018-04-18T14:06:03.721Z,33.56
2018-04-18T14:08:32.545Z,33.63
2018-04-18T14:11:01.045Z,33.50
2018-04-18T14:13:29.479Z,33.00
2018-04-18T14:15:59.819Z,32.32
2018-04-18T14:18:29.096Z,31.66
2018-04-18T14:20:57.588Z,31.78
2018-04-18T14:23:26.058Z,32.33
2018-04-18T14:25:54.686Z,32.90
2018-04-18T14:28:23.535Z,33.46
2018-04-18T14:30:53.800Z,33.53
2018-04-18T14:33:22.337Z,32.97
2018-04-18T14:35:50.726Z,32.77
2018-04-18T14:38:19.610Z,32.50
2018-04-18T14:40:48.025Z,32.10
2018-04-18T14:43:16.390Z,31.94
2018-04-18T14:45:44.822Z,31.74
2018-04-18T14:48:13.187Z,31.56
2018-04-18T14:50:41.540Z,31.81
2018-04-18T14:53:10.325Z,31.99
2018-04-18T14:55:38.689Z,32.25
2018-04-18T14:58:08.009Z,31.86
2018-04-18T15:00:37.003Z,31.83
2018-04-18T15:03:05.720Z,32.18
2018-04-18T15:05:34.243Z,32.41
2018-04-18T15:08:02.621Z,32.30
2018-04-18T15:10:31.123Z,32.86
2018-04-18T15:12:59.605Z,33.11
2018-04-18T15:15:28.234Z,34.27
2018-04-18T15:17:56.616Z,34.23
2018-04-18T15:20:25.088Z,34.80
2018-04-18T15:22:54.295Z,36.05
2018-04-18T15:25:22.859Z,35.27
2018-04-18T15:27:51.388Z,36.56
2018-04-18T15:30:19.871Z,37.73
2018-04-18T15:32:48.438Z,40.00
2018-04-18T15:35:16.831Z,40.64
2018-04-18T15:37:45.637Z,41.30
2018-04-18T15:40:14.001Z,41.54
2018-04-18T15:42:42.415Z,43.11
2018-04-18T15:45:12.115Z,43.49
2018-04-18T15:47:40.518Z,43.44
2018-04-18T15:50:09.184Z,43.35
2018-04-18T15:52:38.146Z,43.27
2018-04-18T15:55:06.854Z,43.82
2018-04-18T15:57:35.454Z,43.65
2018-04-18T16:00:05.053Z,43.83
2018-04-18T16:02:33.936Z,43.78
2018-04-18T16:05:02.423Z,44.14
2018-04-18T16:07:31.149Z,43.85
2018-04-18T16:09:59.818Z,43.76
2018-04-18T16:12:28.374Z,43.37
2018-04-18T16:14:57.319Z,43.34
2018-04-18T16:17:25.793Z,43.40
2018-04-18T16:19:54.838Z,43.49
2018-04-18T16:22:24.394Z,43.45
2018-04-18T16:24:52.856Z,43.64
2018-04-18T16:27:22.480Z,43.19
2018-04-18T16:29:51.044Z,42.93
2018-04-18T16:32:19.597Z,43.52
2018-04-18T16:34:49.272Z,43.86
2018-04-18T16:37:17.689Z,44.11
2018-04-18T16:39:46.066Z,44.41
2018-04-18T16:42:14.448Z,44.77
2018-04-18T16:44:43.096Z,45.28
2018-04-18T16:47:12.431Z,45.35
2018-04-18T16:49:40.812Z,45.45
2018-04-18T16:52:10.320Z,45.58
2018-04-18T16:54:38.693Z,46.24
2018-04-18T16:57:07.087Z,46.19
2018-04-18T16:59:35.500Z,46.12
2018-04-18T17:02:03.941Z,46.53
2018-04-18T17:04:32.313Z,46.41
2018-04-18T17:07:01.067Z,46.58
2018-04-18T17:09:29.780Z,46.44
2018-04-18T17:11:58.562Z,46.64
2018-04-18T17:14:28.654Z,47.36
2018-04-18T17:16:57.199Z,47.93
2018-04-18T17:19:25.776Z,47.84
2018-04-18T17:21:54.679Z,47.99
2018-04-18T17:24:23.252Z,48.43
2018-04-18T17:26:51.732Z,47.97
2018-04-18T17:29:20.418Z,48.09
2018-04-18T17:31:49.625Z,48.63
2018-04-18T17:34:18.496Z,48.71
2018-04-18T17:36:47.083Z,49.57
2018-04-18T17:39:15.565Z,49.50
2018-04-18T17:41:43.962Z,49.84
2018-04-18T17:44:12.416Z,49.43
2018-04-18T17:46:40.798Z,49.03
2018-04-18T17:49:09.588Z,49.49
2018-04-18T17:51:39.164Z,49.23
2018-04-18T17:54:07.996Z,49.56
2018-04-18T17:56:36.701Z,49.35
2018-04-18T17:59:06.989Z,49.45
2018-04-18T18:01:35.492Z,49.48
2018-04-18T18:04:03.868Z,49.60
2018-04-18T18:06:32.310Z,50.14
2018-04-18T18:09:00.826Z,50.34
2018-04-18T18:11:29.286Z,50.21
2018-04-18T18:13:59.322Z,50.63
2018-04-18T18:16:27.911Z,51.20
2018-04-18T18:18:56.603Z,51.49
2018-04-18T18:21:27.125Z,51.67
2018-04-18T18:23:55.537Z,51.69
2018-04-18T18:26:23.961Z,52.01
2018-04-18T18:28:52.365Z,52.44
2018-04-18T18:31:20.740Z,52.87
2018-04-18T18:33:49.222Z,53.09
2018-04-18T18:36:17.662Z,53.52
2018-04-18T18:38:46.091Z,53.53
2018-04-18T18:41:14.498Z,53.19
2018-04-18T18:43:43.383Z,53.55
2018-04-18T18:46:12.036Z,53.55
2018-04-18T18:48:40.525Z,53.19
2018-04-18T18:51:09.136Z,53.51
2018-04-18T18:53:37.815Z,53.45
2018-04-18T18:56:06.334Z,53.67
2018-04-18T18:58:35.666Z,53.71
2018-04-18T19:01:04.268Z,53.46
2018-04-18T19:03:32.920Z,54.01
2018-04-18T19:06:02.211Z,53.85
2018-04-18T19:08:30.730Z,53.43
2018-04-18T19:10:59.251Z,53.70
2018-04-18T19:13:27.867Z,53.85
2018-04-18T19:15:56.331Z,53.61
2018-04-18T19:18:24.815Z,53.74
2018-04-18T19:20:53.225Z,53.34
2018-04-18T19:23:21.604Z,53.56
2018-04-18T19:25:50.014Z,53.80
2018-04-18T19:28:18.607Z,53.84
2018-04-18T19:30:47.183Z,54.06
2018-04-18T19:33:17.056Z,54.45
2018-04-18T19:35:46.193Z,54.31
2018-04-18T19:38:14.673Z,54.41
2018-04-18T19:40:43.286Z,54.12
2018-04-18T19:43:11.830Z,54.37
2018-04-18T19:45:40.422Z,54.61
2018-04-18T19:48:10.146Z,54.68
2018-04-18T19:50:38.981Z,54.90
2018-04-18T19:53:07.787Z,54.80
2018-04-18T19:55:36.277Z,54.81
2018-04-18T19:58:05.216Z,55.68
2018-04-18T20:00:33.643Z,56.14
2018-04-18T20:03:02.391Z,55.96
2018-04-18T20:05:32.660Z,55.61
2018-04-18T20:08:01.352Z,55.79
2018-04-18T20:10:30.009Z,56.21
2018-04-18T20:12:58.765Z,56.23
2018-04-18T20:15:27.519Z,56.40
2018-04-18T20:17:56.544Z,56.98
2018-04-18T20:20:26.151Z,56.96
2018-04-18T20:22:54.907Z,57.20
2018-04-18T20:25:23.674Z,57.77
2018-04-18T20:27:53.369Z,57.54
2018-04-18T20:30:22.462Z,57.30
2018-04-18T20:32:51.453Z,57.33
2018-04-18T20:35:20.875Z,57.28
2018-04-18T20:37:49.319Z,57.30
2018-04-18T20:40:18.184Z,57.35
2018-04-18T20:42:58.456Z,57.85
2018-04-18T20:45:27.614Z,58.17
2018-04-18T20:47:56.397Z,58.36
2018-04-18T20:50:26.018Z,58.55
2018-04-18T20:52:54.671Z,58.27
2018-04-18T20:55:23.067Z,58.49
2018-04-18T20:57:51.504Z,58.84
2018-04-18T21:00:21.276Z,59.05
2018-04-18T21:02:49.847Z,59.00
2018-04-18T21:05:19.566Z,59.31
2018-04-18T21:07:48.178Z,59.85
2018-04-18T21:10:16.733Z,60.28
2018-04-18T21:12:46.866Z,59.91
2018-04-18T21:15:15.209Z,59.78
2018-04-18T21:17:43.655Z,59.79
2018-04-18T21:20:12.805Z,59.99
2018-04-18T21:22:41.168Z,60.04
2018-04-18T21:25:10.640Z,60.35
2018-04-18T21:27:39.106Z,61.05
2018-04-18T21:30:07.481Z,60.95
2018-04-18T21:32:35.928Z,60.81
2018-04-18T21:35:04.462Z,60.92
2018-04-18T21:37:32.943Z,61.40
2018-04-18T21:40:01.342Z,61.72
2018-04-18T21:42:29.889Z,62.48
2018-04-18T21:44:58.278Z,62.61
2018-04-18T21:47:26.822Z,62.90
2018-04-18T21:49:55.342Z,63.15
2018-04-18T21:52:23.829Z,63.51
2018-04-18T21:54:52.271Z,64.00
2018-04-18T21:57:21.217Z,64.94
2018-04-18T21:59:49.604Z,65.49
2018-04-18T22:02:18.000Z,64.98
2018-04-18T22:04:46.751Z,65.23
2018-04-18T22:07:15.365Z,65.39
2018-04-18T22:09:44.259Z,65.78
2018-04-18T22:12:13.098Z,65.62
2018-04-18T22:14:41.517Z,65.85
2018-04-18T22:17:09.983Z,66.21
2018-04-18T22:19:38.520Z,65.79
2018-04-18T22:22:06.983Z,65.87
2018-04-18T22:24:35.448Z,65.84
2018-04-18T22:27:04.329Z,65.70
2018-04-18T22:29:32.668Z,66.05
2018-04-18T22:32:01.078Z,65.90
2018-04-18T22:34:29.504Z,66.46
2018-04-18T22:36:57.856Z,66.20
2018-04-18T22:39:26.196Z,66.30
2018-04-18T22:41:54.985Z,66.60
2018-04-18T22:44:23.499Z,66.37
2018-04-18T22:46:52.005Z,66.40
2018-04-18T22:49:20.736Z,66.56
2018-04-18T22:51:49.130Z,66.84
2018-04-18T22:54:17.493Z,66.77
2018-04-18T22:56:46.161Z,67.65
2018-04-18T22:59:14.849Z,67.89
2018-04-18T23:01:43.199Z,67.60
2018-04-18T23:04:11.590Z,67.47
2018-04-18T23:06:40.040Z,67.45
2018-04-18T23:09:08.542Z,67.38
2018-04-18T23:11:37.011Z,67.30
2018-04-18T23:14:05.698Z,67.42
2018-04-18T23:16:34.166Z,67.36
2018-04-18T23:19:03.443Z,67.39
2018-04-18T23:21:32.790Z,67.40
2018-04-18T23:24:01.267Z,67.40
2018-04-18T23:26:29.756Z,67.40
2018-04-18T23:28:58.128Z,67.42
2018-04-18T23:31:26.541Z,67.50
2018-04-18T23:33:56.005Z,67.73
2018-04-18T23:36:25.167Z,67.73
2018-04-18T23:38:53.648Z,67.68
2018-04-18T23:41:22.042Z,67.71
2018-04-18T23:43:50.414Z,68.02
2018-04-18T23:46:18.975Z,68.17
2018-04-18T23:48:47.493Z,68.48
2018-04-18T23:51:15.953Z,68.75
2018-04-18T23:53:44.304Z,68.81
2018-04-18T23:56:13.329Z,68.88
2018-04-18T23:58:43.780Z,68.85
